Time;durP1;ratioP1;P1;durP2;ratioP2;P2;SDS_P1;SDS_P2;PMS_P1;PMS_P2;Temp;Humidity;BMP_temperature;BMP_pressure;BME280_temperature;BME280_humidity;BME280_pressure;Samples;Min_cycle;Max_cycle;Signal;HPM_P1;HPM_P2
2022/05/20 00:02:07;;;;;;;6.95;6.25;;;19.50;99.90;;;;;;5018521;28;20210;-88
2022/05/20 00:04:34;;;;;;;10.30;6.03;;;19.50;99.90;;;;;;5018508;28;20178;-89
2022/05/20 00:06:59;;;;;;;6.88;6.18;;;19.40;99.90;;;;;;5021116;28;20205;-89
2022/05/20 00:09:25;;;;;;;6.80;5.97;;;19.40;99.90;;;;;;5021918;28;20213;-89
2022/05/20 00:11:51;;;;;;;6.68;6.03;;;19.40;99.90;;;;;;5022056;28;20214;-89
2022/05/20 00:14:17;;;;;;;10.57;6.70;;;19.30;99.90;;;;;;5022036;28;20202;-88
2022/05/20 00:16:43;;;;;;;7.28;6.28;;;19.30;99.90;;;;;;5022022;28;20232;-89
2022/05/20 00:19:09;;;;;;;7.55;6.68;;;19.30;99.90;;;;;;5021835;28;20225;-89
2022/05/20 00:21:35;;;;;;;6.95;6.20;;;19.30;99.90;;;;;;5038603;28;20213;-89
2022/05/20 00:24:02;;;;;;;10.68;6.03;;;19.30;99.90;;;;;;5021846;28;20186;-89
2022/05/20 00:26:27;;;;;;;7.00;6.22;;;19.30;99.90;;;;;;5022182;28;20213;-89
2022/05/20 00:28:54;;;;;;;10.00;6.13;;;19.20;99.90;;;;;;5021493;28;20188;-89
2022/05/20 00:31:23;;;;;;;7.40;6.43;;;19.20;99.90;;;;;;5038145;28;20243;-89
2022/05/20 00:33:49;;;;;;;6.72;6.05;;;19.30;99.90;;;;;;5021403;28;20677;-89
2022/05/20 00:36:15;;;;;;;7.88;6.68;;;19.20;99.90;;;;;;5038392;28;20236;-89
2022/05/20 00:38:41;;;;;;;7.38;6.05;;;19.20;99.90;;;;;;5021545;28;20185;-89
2022/05/20 00:41:08;;;;;;;7.10;5.68;;;19.10;99.90;;;;;;5038100;28;20260;-89
2022/05/20 00:43:45;;;;;;;6.75;6.07;;;19.10;99.90;;;;;;5021705;28;20189;-89
2022/05/20 00:46:17;;;;;;;7.50;6.40;;;18.90;99.90;;;;;;5021303;28;20335;-89
2022/05/20 00:48:44;;;;;;;7.00;6.20;;;18.80;99.90;;;;;;5021220;28;20255;-89
2022/05/20 00:51:14;;;;;;;9.57;6.68;;;18.70;99.90;;;;;;5020582;28;20220;-89
2022/05/20 00:54:09;;;;;;;10.50;6.25;;;18.60;99.90;;;;;;5020836;28;20292;-89
2022/05/20 00:56:40;;;;;;;9.77;6.22;;;18.60;99.90;;;;;;5037634;28;20206;-89
2022/05/20 00:59:11;;;;;;;9.57;6.47;;;18.50;99.90;;;;;;5037159;28;20188;-89
2022/05/20 01:01:37;;;;;;;7.40;6.50;;;18.50;99.90;;;;;;5037956;28;20533;-88
2022/05/20 01:04:05;;;;;;;9.27;6.28;;;18.50;99.90;;;;;;5021176;28;20178;-89
2022/05/20 01:06:32;;;;;;;8.20;6.60;;;18.50;99.90;;;;;;5020960;28;20202;-88
2022/05/20 01:08:57;;;;;;;7.10;6.40;;;18.60;99.90;;;;;;5037320;28;20182;-88
2022/05/20 01:11:25;;;;;;;7.47;6.05;;;18.70;99.90;;;;;;5037508;28;20184;-88
2022/05/20 01:13:52;;;;;;;9.63;6.20;;;18.80;99.90;;;;;;5037399;28;20197;-88
2022/05/20 01:16:18;;;;;;;6.95;6.25;;;18.80;99.90;;;;;;5020914;28;20197;-89
2022/05/20 01:18:46;;;;;;;9.52;6.25;;;18.80;99.90;;;;;;5020145;28;20200;-89
2022/05/20 01:21:14;;;;;;;7.10;6.40;;;18.80;99.90;;;;;;5020834;28;20174;-88
2022/05/20 01:24:00;;;;;;;7.88;6.55;;;18.70;99.90;;;;;;5020474;28;20178;-89
2022/05/20 01:26:26;;;;;;;8.00;7.20;;;18.70;99.90;;;;;;5020600;28;20229;-89
2022/05/20 01:28:52;;;;;;;7.18;6.35;;;18.60;99.90;;;;;;5036681;28;20263;-89
2022/05/20 01:31:18;;;;;;;7.93;6.32;;;18.40;99.90;;;;;;5020643;28;20178;-88
2022/05/20 01:33:47;;;;;;;7.65;6.40;;;18.30;99.90;;;;;;5020772;28;20255;-88
2022/05/20 01:36:19;;;;;;;7.25;6.55;;;18.20;99.90;;;;;;5020295;28;20303;-89
2022/05/20 01:38:46;;;;;;;9.32;6.65;;;18.20;99.90;;;;;;5036894;28;20937;-89
2022/05/20 01:41:26;;;;;;;8.63;6.63;;;18.20;99.90;;;;;;5019876;28;20272;-88
2022/05/20 01:44:00;;;;;;;7.68;6.93;;;18.20;99.90;;;;;;5020646;28;20193;-88
2022/05/20 01:46:44;;;;;;;7.90;6.20;;;18.10;99.90;;;;;;5036730;28;20193;-89
2022/05/20 01:49:28;;;;;;;7.50;6.65;;;18.10;99.90;;;;;;5019969;28;20644;-88
2022/05/20 01:52:14;;;;;;;8.30;6.72;;;18.10;99.90;;;;;;5020262;28;20192;-89
2022/05/20 01:55:02;;;;;;;8.18;6.43;;;18.10;99.90;;;;;;5020120;28;20198;-89
2022/05/20 01:58:14;;;;;;;7.72;6.70;;;18.10;99.90;;;;;;5019634;28;20202;-88
2022/05/20 02:00:41;;;;;;;7.90;7.03;;;18.10;99.90;;;;;;5019575;28;20174;-88
2022/05/20 02:03:23;;;;;;;7.40;6.38;;;18.10;99.90;;;;;;5019322;28;20182;-88
2022/05/20 02:05:57;;;;;;;10.38;6.55;;;18.10;99.90;;;;;;5019937;28;20244;-88
2022/05/20 02:08:33;;;;;;;10.13;6.82;;;18.00;99.90;;;;;;5019904;28;20188;-88
2022/05/20 02:11:09;;;;;;;8.93;6.88;;;17.90;99.90;;;;;;5020106;28;20178;-88
2022/05/20 02:14:15;;;;;;;10.00;6.40;;;17.80;99.90;;;;;;5035808;28;20294;-89
2022/05/20 02:16:46;;;;;;;7.10;6.00;;;17.70;99.90;;;;;;4999563;28;20208;-88
2022/05/20 02:19:21;;;;;;;8.38;7.18;;;17.60;99.90;;;;;;5036973;28;20201;-89
2022/05/20 02:21:54;;;;;;;7.88;5.95;;;17.40;99.90;;;;;;5036202;28;20176;-88
2022/05/20 02:24:24;;;;;;;7.25;6.55;;;17.40;99.90;;;;;;5036277;28;20203;-89
2022/05/20 02:26:53;;;;;;;7.80;6.55;;;17.40;99.90;;;;;;5019381;28;20256;-88
2022/05/20 02:29:26;;;;;;;9.43;6.70;;;17.50;99.90;;;;;;5018520;28;20198;-88
2022/05/20 02:32:07;;;;;;;8.63;7.07;;;17.50;99.90;;;;;;5036278;28;20247;-88
2022/05/20 02:34:34;;;;;;;7.80;6.97;;;17.50;99.90;;;;;;5019401;28;20296;-88
2022/05/20 02:37:19;;;;;;;8.77;7.57;;;17.50;99.90;;;;;;5019231;28;20279;-88
2022/05/20 02:39:45;;;;;;;8.30;6.68;;;17.50;99.90;;;;;;5019474;28;20185;-88
2022/05/20 02:42:12;;;;;;;8.98;7.00;;;17.40;99.90;;;;;;5019375;28;20184;-88
2022/05/20 02:44:37;;;;;;;7.72;6.93;;;17.50;99.90;;;;;;5019265;28;20182;-88
2022/05/20 02:47:04;;;;;;;8.70;7.05;;;17.50;99.90;;;;;;5018909;28;20206;-88
2022/05/20 02:49:30;;;;;;;8.18;7.15;;;17.40;99.90;;;;;;5018989;28;20174;-88
2022/05/20 02:51:56;;;;;;;8.43;6.40;;;17.30;99.90;;;;;;5018967;28;20260;-88
2022/05/20 02:54:22;;;;;;;8.03;7.33;;;17.40;99.90;;;;;;5019046;28;20201;-88
2022/05/20 02:56:47;;;;;;;8.80;7.68;;;17.40;99.90;;;;;;5018795;28;20292;-88
2022/05/20 03:04:45;;;;;;;9.23;7.07;;;17.40;99.90;;;;;;5035388;28;20221;-88
2022/05/20 03:07:13;;;;;;;7.88;6.50;;;17.40;99.90;;;;;;5018733;28;20208;-88
2022/05/20 03:09:39;;;;;;;9.23;7.38;;;17.50;99.90;;;;;;5018567;28;20182;-89
2022/05/20 03:12:06;;;;;;;8.35;6.88;;;17.50;99.90;;;;;;5018604;28;20182;-88
2022/05/20 03:14:32;;;;;;;10.10;7.00;;;17.50;99.90;;;;;;5018446;28;20210;-88
2022/05/20 03:17:02;;;;;;;8.07;7.05;;;17.50;99.90;;;;;;5018492;28;20233;-88
2022/05/20 03:19:31;;;;;;;8.13;6.68;;;17.50;99.90;;;;;;5018597;28;20280;-88
2022/05/20 03:21:58;;;;;;;8.40;6.90;;;17.50;99.90;;;;;;5018558;28;20189;-88
2022/05/20 03:24:24;;;;;;;9.03;6.60;;;17.60;99.90;;;;;;5018524;28;20185;-88
2022/05/20 03:26:50;;;;;;;8.13;6.25;;;17.60;99.90;;;;;;5018570;28;20205;-88
2022/05/20 03:29:16;;;;;;;7.78;6.93;;;17.60;99.90;;;;;;5018072;28;20182;-88
2022/05/20 03:31:42;;;;;;;7.93;7.00;;;17.50;99.90;;;;;;5018301;28;20178;-88
2022/05/20 03:34:09;;;;;;;7.95;7.15;;;17.60;99.90;;;;;;5034801;28;20254;-88
2022/05/20 03:36:38;;;;;;;11.25;7.70;;;17.70;99.90;;;;;;5018453;28;20202;-88
2022/05/20 03:39:06;;;;;;;9.07;7.07;;;17.70;99.90;;;;;;5018282;28;20228;-88
2022/05/20 03:41:32;;;;;;;9.07;7.45;;;17.70;99.90;;;;;;5034813;28;20174;-88
2022/05/20 03:43:58;;;;;;;8.82;7.95;;;17.70;99.90;;;;;;5018631;28;20184;-88
2022/05/20 03:46:25;;;;;;;8.70;6.72;;;17.70;99.90;;;;;;5018269;28;20255;-88
2022/05/20 03:48:51;;;;;;;8.45;7.60;;;17.70;99.90;;;;;;5018198;28;20181;-89
2022/05/20 03:51:17;;;;;;;7.97;7.15;;;17.70;99.90;;;;;;5018122;28;20192;-88
2022/05/20 03:53:52;;;;;;;8.80;7.43;;;17.60;99.90;;;;;;5017868;28;20209;-89
2022/05/20 03:56:18;;;;;;;8.85;7.85;;;17.60;99.90;;;;;;5018087;28;20220;-88
2022/05/20 03:58:44;;;;;;;9.85;7.15;;;17.60;99.90;;;;;;5018032;28;20177;-88
2022/05/20 04:03:57;;;;;;;10.13;7.43;;;17.50;99.90;;;;;;5033617;28;20193;-88
2022/05/20 04:06:23;;;;;;;8.27;7.05;;;17.40;99.90;;;;;;5018221;28;20205;-88
2022/05/20 04:08:49;;;;;;;10.52;7.47;;;17.30;99.90;;;;;;5034202;28;20178;-88
2022/05/20 04:11:16;;;;;;;9.40;6.85;;;17.20;99.90;;;;;;5018174;28;20186;-88
2022/05/20 04:13:43;;;;;;;7.55;6.85;;;17.10;99.90;;;;;;5018237;28;20300;-88
2022/05/20 04:16:11;;;;;;;8.70;7.47;;;17.10;99.90;;;;;;5018410;28;20202;-88
2022/05/20 04:18:41;;;;;;;10.35;7.53;;;17.00;99.90;;;;;;5017812;28;20243;-88
2022/05/20 04:21:08;;;;;;;10.45;7.80;;;17.00;99.90;;;;;;5017970;28;20174;-88
2022/05/20 04:23:34;;;;;;;8.15;7.35;;;17.00;99.90;;;;;;5017870;28;20182;-88
2022/05/20 04:26:00;;;;;;;8.63;7.60;;;17.10;99.90;;;;;;5034233;28;20849;-88
2022/05/20 04:28:26;;;;;;;9.63;7.97;;;17.10;99.90;;;;;;5017817;28;20273;-88
2022/05/20 04:30:56;;;;;;;8.80;7.47;;;17.20;99.90;;;;;;5033995;28;20182;-88
2022/05/20 04:33:22;;;;;;;10.45;8.00;;;17.40;99.90;;;;;;5017941;28;20263;-89
2022/05/20 04:35:49;;;;;;;8.93;8.03;;;17.40;99.90;;;;;;5017844;28;20257;-88
2022/05/20 04:38:15;;;;;;;8.63;7.78;;;17.40;99.90;;;;;;5017979;28;20182;-88
2022/05/20 04:40:41;;;;;;;7.82;7.03;;;17.40;99.90;;;;;;5017919;28;20189;-89
2022/05/20 04:48:36;;;;;;;10.82;8.20;;;17.50;99.90;;;;;;5034133;28;20178;-88
2022/05/20 04:51:02;;;;;;;8.80;8.00;;;17.50;99.90;;;;;;5017645;28;20186;-88
2022/05/20 04:56:12;;;;;;;8.38;7.53;;;17.70;99.90;;;;;;5037465;28;20190;-88
2022/05/20 04:58:38;;;;;;;10.57;8.07;;;17.70;99.90;;;;;;5021408;28;20196;-88
2022/05/20 05:01:22;;;;;;;9.55;7.68;;;17.80;99.90;;;;;;5038510;28;20192;-87
2022/05/20 05:03:48;;;;;;;9.32;7.97;;;17.80;99.90;;;;;;5024032;28;20197;-88
2022/05/20 05:06:17;;;;;;;9.13;8.15;;;17.80;99.90;;;;;;5021528;28;20205;-88
2022/05/20 05:08:43;;;;;;;10.07;7.88;;;17.90;99.90;;;;;;5037989;28;20194;-87
2022/05/20 05:11:09;;;;;;;10.10;8.18;;;17.90;99.90;;;;;;5038494;28;20205;-88
2022/05/20 05:13:35;;;;;;;9.10;7.55;;;17.90;99.90;;;;;;5038113;28;20205;-88
2022/05/20 05:16:08;;;;;;;9.27;7.60;;;17.90;99.90;;;;;;5038471;28;20202;-88
2022/05/20 05:18:37;;;;;;;12.77;8.80;;;17.90;99.90;;;;;;5038832;28;20276;-88
2022/05/20 05:21:03;;;;;;;13.90;9.00;;;17.90;99.90;;;;;;5037973;28;20224;-87
2022/05/20 05:23:29;;;;;;;10.20;8.90;;;17.90;99.90;;;;;;5021463;28;20252;-87
2022/05/20 05:25:55;;;;;;;12.57;8.75;;;17.90;99.90;;;;;;5021269;28;20280;-89
2022/05/20 05:28:22;;;;;;;10.15;8.38;;;17.90;99.90;;;;;;5022728;28;20243;-90
2022/05/20 05:30:50;;;;;;;12.05;8.75;;;17.90;99.90;;;;;;5022457;28;20662;-89
2022/05/20 05:33:17;;;;;;;9.70;8.32;;;18.00;99.90;;;;;;5022795;28;20218;-88
2022/05/20 05:35:44;;;;;;;11.60;8.45;;;18.00;99.90;;;;;;5039238;28;20251;-88
2022/05/20 05:38:10;;;;;;;10.27;8.60;;;18.00;99.90;;;;;;5023321;28;20181;-88
2022/05/20 05:40:37;;;;;;;10.85;8.75;;;18.10;99.90;;;;;;5022865;28;20177;-88
2022/05/20 05:43:03;;;;;;;9.77;7.90;;;18.10;99.90;;;;;;5022695;28;20178;-88
2022/05/20 05:45:32;;;;;;;10.05;8.48;;;18.20;99.90;;;;;;5038905;28;20182;-88
2022/05/20 05:48:03;;;;;;;10.93;9.02;;;18.20;99.90;;;;;;5022855;28;20185;-88
2022/05/20 05:50:32;;;;;;;12.55;9.20;;;18.30;99.90;;;;;;5022652;28;20180;-88
2022/05/20 05:53:07;;;;;;;10.40;9.25;;;18.50;99.90;;;;;;5022668;28;20181;-88
2022/05/20 05:55:34;;;;;;;11.25;9.18;;;18.60;99.90;;;;;;5022005;28;20238;-89
2022/05/20 05:58:00;;;;;;;14.02;9.77;;;18.80;99.90;;;;;;5021654;28;20205;-88
2022/05/20 06:00:26;;;;;;;10.95;8.77;;;19.00;99.90;;;;;;5021942;28;20206;-87
2022/05/20 06:02:52;;;;;;;10.63;8.90;;;19.10;99.90;;;;;;5053992;28;20200;-88
2022/05/20 06:05:18;;;;;;;12.82;9.43;;;19.30;99.90;;;;;;5021295;28;20182;-88
2022/05/20 06:07:45;;;;;;;13.35;9.25;;;19.40;99.90;;;;;;5021127;28;20203;-88
2022/05/20 06:10:11;;;;;;;9.75;8.75;;;19.50;99.90;;;;;;5020945;28;20247;-88
2022/05/20 06:12:36;;;;;;;10.40;8.40;;;19.70;99.90;;;;;;5021317;28;20186;-88
2022/05/20 06:15:09;;;;;;;8.90;8.10;;;19.80;99.90;;;;;;5020591;28;20209;-88
2022/05/20 06:17:35;;;;;;;12.73;8.52;;;19.90;99.90;;;;;;5020548;28;20263;-88
2022/05/20 06:20:02;;;;;;;10.30;8.95;;;20.00;99.90;;;;;;5020541;28;20177;-88
2022/05/20 06:22:28;;;;;;;9.13;7.80;;;20.10;99.90;;;;;;5020668;28;20622;-88
2022/05/20 06:24:54;;;;;;;10.93;7.57;;;20.20;99.90;;;;;;5020624;28;20178;-88
2022/05/20 06:27:20;;;;;;;8.43;7.03;;;20.40;99.90;;;;;;5020633;28;20568;-88
2022/05/20 06:29:47;;;;;;;8.18;7.28;;;20.50;99.90;;;;;;5020721;28;20213;-88
2022/05/20 06:32:13;;;;;;;9.23;8.23;;;20.60;99.90;;;;;;5020584;28;20189;-88
2022/05/20 06:40:11;;;;;;;9.23;6.88;;;21.10;99.90;;;;;;5036133;28;20268;-85
2022/05/20 06:42:37;;;;;;;7.20;6.50;;;21.20;99.90;;;;;;5019512;28;20213;-88
2022/05/20 06:45:04;;;;;;;8.80;6.53;;;21.40;99.90;;;;;;5018454;28;20281;-87
2022/05/20 06:47:30;;;;;;;9.65;6.90;;;21.50;99.90;;;;;;5018368;28;20198;-87
2022/05/20 06:49:56;;;;;;;7.05;6.35;;;21.50;99.90;;;;;;5020550;28;20170;-88
2022/05/20 06:52:22;;;;;;;10.40;6.38;;;21.70;99.90;;;;;;5020675;28;20178;-88
2022/05/20 06:54:48;;;;;;;6.85;5.95;;;21.80;99.90;;;;;;5020704;28;20209;-88
2022/05/20 06:57:18;;;;;;;6.50;5.32;;;22.00;99.90;;;;;;5019901;28;20201;-89
2022/05/20 06:59:44;;;;;;;6.45;5.40;;;22.10;99.90;;;;;;5019574;28;20186;-87
2022/05/20 07:02:10;;;;;;;6.95;5.55;;;22.20;99.90;;;;;;5019768;28;20178;-88
2022/05/20 07:04:36;;;;;;;6.25;5.65;;;22.40;99.90;;;;;;5017867;28;20190;-88
2022/05/20 07:07:04;;;;;;;7.07;6.22;;;22.50;99.90;;;;;;5006832;28;20190;-88
2022/05/20 07:09:31;;;;;;;9.32;5.53;;;22.60;99.90;;;;;;5020178;28;20189;-88
2022/05/20 07:12:00;;;;;;;5.90;5.10;;;22.60;99.90;;;;;;5005839;28;20243;-87
2022/05/20 07:14:28;;;;;;;5.80;5.22;;;22.80;99.90;;;;;;5046799;28;20297;-87
2022/05/20 07:16:54;;;;;;;5.75;5.18;;;22.90;99.90;;;;;;5018614;28;20296;-88
2022/05/20 07:19:21;;;;;;;6.05;5.43;;;23.10;99.90;;;;;;5018925;28;20228;-87
2022/05/20 07:21:47;;;;;;;6.15;5.07;;;23.20;99.90;;;;;;5015693;28;20178;-88
2022/05/20 07:24:51;;;;;;;7.40;5.22;;;23.40;99.90;;;;;;5047483;28;20215;-88
2022/05/20 07:27:34;;;;;;;7.05;5.70;;;23.60;99.90;;;;;;5058153;28;20217;-88
2022/05/20 07:30:00;;;;;;;5.72;5.05;;;23.70;99.90;;;;;;4999199;28;20179;-88
2022/05/20 07:32:38;;;;;;;5.97;5.30;;;23.90;99.90;;;;;;5000940;28;20201;-88
2022/05/20 07:35:05;;;;;;;6.40;5.30;;;24.10;99.90;;;;;;5019534;28;20201;-88
2022/05/20 07:37:32;;;;;;;5.85;5.25;;;24.30;99.90;;;;;;5034957;28;20213;-88
2022/05/20 07:39:58;;;;;;;5.55;4.70;;;24.50;99.90;;;;;;5035858;28;20260;-88
2022/05/20 07:42:24;;;;;;;5.75;5.15;;;24.60;99.90;;;;;;5036014;28;20277;-88
2022/05/20 07:44:50;;;;;;;7.25;5.35;;;24.80;99.90;;;;;;5036035;28;20185;-87
2022/05/20 07:47:18;;;;;;;6.32;5.28;;;24.80;99.90;;;;;;5035925;28;20201;-88
2022/05/20 07:49:44;;;;;;;8.43;5.70;;;24.90;99.90;;;;;;5035794;28;20181;-88
2022/05/20 07:52:12;;;;;;;5.80;5.00;;;24.80;99.90;;;;;;5035880;28;20174;-88
2022/05/20 07:54:41;;;;;;;8.65;5.38;;;24.90;99.90;;;;;;5035214;28;20236;-88
2022/05/20 07:57:13;;;;;;;7.95;5.47;;;25.10;99.90;;;;;;5035401;28;20321;-88
2022/05/20 07:59:45;;;;;;;8.98;5.78;;;25.10;99.90;;;;;;5035996;28;20167;-87
2022/05/20 08:02:14;;;;;;;9.15;5.47;;;25.30;99.90;;;;;;5035513;28;20173;-87
2022/05/20 08:04:55;;;;;;;7.90;4.97;;;25.30;99.90;;;;;;5035659;28;20181;-88
2022/05/20 08:07:24;;;;;;;8.32;5.40;;;25.40;99.90;;;;;;5035651;28;20233;-87
2022/05/20 08:09:50;;;;;;;6.55;5.80;;;25.40;99.90;;;;;;5018616;28;20217;-87
2022/05/20 08:12:16;;;;;;;5.65;5.07;;;25.60;99.90;;;;;;5035503;28;20205;-88
2022/05/20 08:14:42;;;;;;;6.05;5.15;;;25.70;99.90;;;;;;5035503;28;20201;-88
2022/05/20 08:17:08;;;;;;;9.32;5.07;;;26.00;99.90;;;;;;5033130;28;20270;-87
2022/05/20 08:19:34;;;;;;;7.13;5.20;;;26.20;99.90;;;;;;5035494;28;20174;-88
2022/05/20 08:22:01;;;;;;;7.68;5.13;;;26.20;99.90;;;;;;5035082;28;20170;-87
2022/05/20 08:24:27;;;;;;;8.20;5.38;;;26.40;99.90;;;;;;5035515;28;20182;-88
2022/05/20 08:26:53;;;;;;;6.90;5.35;;;26.50;99.90;;;;;;5018585;28;20201;-88
2022/05/20 08:29:25;;;;;;;8.75;4.82;;;26.60;99.90;;;;;;5038035;28;20235;-88
2022/05/20 08:31:52;;;;;;;5.65;4.93;;;26.90;99.90;;;;;;5022465;28;20180;-87
2022/05/20 08:34:48;;;;;;;6.82;5.03;;;26.90;99.90;;;;;;5022818;28;20205;-87
2022/05/20 08:37:19;;;;;;;7.45;4.45;;;27.10;99.90;;;;;;5056319;28;20194;-88
2022/05/20 08:39:46;;;;;;;7.55;4.90;;;27.20;99.90;;;;;;5021666;28;20174;-87
2022/05/20 08:42:21;;;;;;;8.10;5.10;;;27.40;99.90;;;;;;5022123;28;20182;-87
2022/05/20 08:44:48;;;;;;;7.15;5.25;;;27.60;99.90;;;;;;5038664;28;20235;-88
2022/05/20 08:47:47;;;;;;;7.78;5.00;;;27.80;99.90;;;;;;5038539;28;20198;-88
2022/05/20 08:50:26;;;;;;;5.97;4.40;;;27.90;99.90;;;;;;5038601;28;20252;-87
2022/05/20 08:52:56;;;;;;;6.75;4.93;;;28.00;99.90;;;;;;5037772;28;20178;-87
2022/05/20 08:55:24;;;;;;;6.80;4.72;;;28.10;99.90;;;;;;5021921;28;20170;-88
2022/05/20 08:58:02;;;;;;;4.78;4.30;;;28.20;99.90;;;;;;5020815;28;20189;-88
2022/05/20 09:00:29;;;;;;;6.97;4.57;;;28.50;99.90;;;;;;5037903;28;20178;-88
2022/05/20 09:02:57;;;;;;;6.28;5.00;;;28.70;99.90;;;;;;5038088;28;20213;-88
2022/05/20 09:05:30;;;;;;;5.65;4.15;;;28.80;99.90;;;;;;5026641;28;20201;-88
2022/05/20 09:08:17;;;;;;;5.60;4.40;;;28.80;99.90;;;;;;5020084;28;20180;-88
2022/05/20 09:10:53;;;;;;;6.22;3.97;;;29.00;99.90;;;;;;5023319;28;20213;-88
2022/05/20 09:16:30;;;;;;;6.25;4.30;;;29.50;99.90;;;;;;5037595;28;20194;-88
2022/05/20 09:19:07;;;;;;;5.93;4.25;;;29.40;99.90;;;;;;5037517;28;20212;-87
2022/05/20 09:21:43;;;;;;;5.20;3.45;;;29.50;99.90;;;;;;5037411;28;20582;-88
2022/05/20 09:24:21;;;;;;;5.05;3.80;;;29.50;99.90;;;;;;5012076;28;20216;-88
2022/05/20 09:27:03;;;;;;;4.30;3.70;;;29.40;99.90;;;;;;5042508;28;20201;-86
2022/05/20 09:29:38;;;;;;;5.15;3.58;;;29.40;99.90;;;;;;5038460;28;20166;-86
2022/05/20 09:32:07;;;;;;;4.47;3.63;;;29.40;99.90;;;;;;5022802;28;20216;-86
2022/05/20 09:34:39;;;;;;;6.18;3.53;;;29.40;99.70;;;;;;5020326;28;20201;-86
2022/05/20 09:37:11;;;;;;;8.88;3.55;;;29.40;99.10;;;;;;5019763;28;20220;-87
2022/05/20 09:39:43;;;;;;;7.50;4.15;;;29.30;99.20;;;;;;5012185;28;20213;-87
2022/05/20 09:42:16;;;;;;;4.93;3.47;;;29.40;99.20;;;;;;5014609;28;20522;-86
2022/05/20 09:44:45;;;;;;;5.38;3.78;;;29.40;98.80;;;;;;5029061;28;20186;-87
2022/05/20 09:47:28;;;;;;;3.97;3.47;;;29.30;98.90;;;;;;5035792;28;20202;-88
2022/05/20 09:49:58;;;;;;;5.45;3.67;;;29.30;99.00;;;;;;5002636;28;20650;-88
2022/05/20 09:52:33;;;;;;;5.95;4.25;;;29.40;99.30;;;;;;5015943;28;20624;-87
2022/05/20 09:55:04;;;;;;;4.28;3.78;;;29.50;98.40;;;;;;5013698;28;20201;-87
2022/05/20 09:57:40;;;;;;;4.38;3.65;;;29.60;98.50;;;;;;5023034;28;20260;-87
2022/05/20 10:00:32;;;;;;;5.05;3.53;;;29.80;97.90;;;;;;5024736;28;20180;-88
2022/05/20 10:03:34;;;;;;;4.28;3.50;;;30.00;98.50;;;;;;5054046;28;20177;-88
2022/05/20 10:06:22;;;;;;;5.30;3.28;;;30.00;96.30;;;;;;5053111;28;20198;-88
2022/05/20 10:09:16;;;;;;;7.10;3.95;;;30.20;96.40;;;;;;5053330;28;20186;-88
2022/05/20 10:11:54;;;;;;;5.18;3.55;;;30.30;96.40;;;;;;5053301;28;20178;-87
2022/05/20 10:14:29;;;;;;;7.85;3.78;;;30.30;95.90;;;;;;5046949;28;20296;-87
2022/05/20 10:17:20;;;;;;;5.35;3.65;;;30.30;95.90;;;;;;5019359;28;20274;-87
2022/05/20 10:20:08;;;;;;;5.20;3.30;;;30.50;95.10;;;;;;5020789;28;20180;-88
2022/05/20 10:22:46;;;;;;;5.97;3.53;;;30.50;94.30;;;;;;5032240;28;20178;-88
2022/05/20 10:25:50;;;;;;;7.15;3.50;;;30.60;94.80;;;;;;5011695;28;20170;-89
2022/05/20 10:34:19;;;;;;;6.15;3.22;;;30.80;93.20;;;;;;5016238;28;20198;-89
2022/05/20 10:37:11;;;;;;;3.83;2.85;;;30.90;92.00;;;;;;5000460;28;20266;-87
2022/05/20 10:40:18;;;;;;;7.93;3.03;;;30.90;92.00;;;;;;5016017;28;20240;-89
2022/05/20 10:43:09;;;;;;;6.93;3.30;;;30.90;92.90;;;;;;4940243;28;20181;-88
2022/05/20 10:48:47;;;;;;;5.18;3.33;;;31.00;91.00;;;;;;5021910;28;20191;-88
2022/05/20 10:51:22;;;;;;;4.53;3.38;;;30.90;90.40;;;;;;5001310;28;20170;-88
2022/05/20 10:54:00;;;;;;;6.25;3.30;;;31.10;93.50;;;;;;5000330;28;20202;-89
2022/05/20 10:56:29;;;;;;;5.97;3.25;;;31.30;91.60;;;;;;4999989;28;20197;-89
2022/05/20 10:59:14;;;;;;;5.43;3.40;;;31.30;91.20;;;;;;4999480;28;20182;-88
2022/05/20 11:01:55;;;;;;;3.55;3.00;;;31.50;91.40;;;;;;5000658;28;20162;-89
2022/05/20 11:04:37;;;;;;;6.28;3.30;;;31.50;90.40;;;;;;5016131;28;20194;-88
2022/05/20 11:07:21;;;;;;;5.35;3.15;;;31.50;90.70;;;;;;4999184;28;20206;-90
2022/05/20 11:10:06;;;;;;;8.02;3.35;;;31.40;87.50;;;;;;5018446;28;20252;-88
2022/05/20 11:12:47;;;;;;;5.88;3.47;;;31.30;87.40;;;;;;5018817;28;20180;-89
2022/05/20 11:15:48;;;;;;;7.32;3.08;;;31.40;90.00;;;;;;5018720;28;20190;-88
2022/05/20 11:18:23;;;;;;;6.35;3.40;;;31.40;89.30;;;;;;5035124;28;20189;-88
2022/05/20 11:21:16;;;;;;;5.32;3.00;;;31.60;88.10;;;;;;5034992;28;20170;-88
2022/05/20 11:23:55;;;;;;;9.25;3.22;;;31.50;89.20;;;;;;5034890;28;20183;-89
2022/05/20 11:26:51;;;;;;;7.63;3.45;;;31.60;89.10;;;;;;5018828;28;20288;-89
2022/05/20 11:29:52;;;;;;;7.22;3.22;;;31.80;86.00;;;;;;5034715;28;20170;-89
2022/05/20 11:32:36;;;;;;;5.30;3.20;;;31.80;88.30;;;;;;5018466;28;20192;-89
2022/05/20 11:35:02;;;;;;;5.55;3.28;;;32.00;88.50;;;;;;5018650;28;20211;-89
2022/05/20 11:37:44;;;;;;;8.30;3.42;;;32.10;88.40;;;;;;5018598;28;20206;-89
2022/05/20 11:40:38;;;;;;;5.93;3.28;;;32.00;87.10;;;;;;5010862;28;20221;-89
2022/05/20 11:43:25;;;;;;;6.25;3.10;;;31.80;84.10;;;;;;5015667;28;20177;-88
2022/05/20 11:46:10;;;;;;;5.53;3.22;;;32.00;84.90;;;;;;4998960;28;20663;-88
2022/05/20 11:48:58;;;;;;;6.35;3.03;;;32.00;83.00;;;;;;4998452;28;20292;-89
2022/05/20 11:52:06;;;;;;;5.97;3.00;;;32.00;88.90;;;;;;4999058;28;20175;-88
2022/05/20 11:54:43;;;;;;;7.57;3.17;;;32.40;85.10;;;;;;4998820;28;20202;-89
2022/05/20 11:57:22;;;;;;;5.88;3.13;;;32.20;84.60;;;;;;5008995;28;20293;-90
2022/05/20 12:00:02;;;;;;;5.60;3.42;;;32.20;80.90;;;;;;5000447;28;20281;-89
2022/05/20 12:03:02;;;;;;;6.68;3.30;;;32.20;84.30;;;;;;5017907;28;20212;-88
2022/05/20 12:05:32;;;;;;;7.47;3.00;;;32.30;82.80;;;;;;5002871;28;20181;-89
2022/05/20 12:07:58;;;;;;;8.18;3.53;;;32.60;80.70;;;;;;5002814;28;20178;-89
2022/05/20 12:10:30;;;;;;;7.78;3.55;;;32.70;80.40;;;;;;5002285;28;20180;-89
2022/05/20 12:13:14;;;;;;;6.88;3.40;;;32.60;79.90;;;;;;5002993;28;20183;-89
2022/05/20 12:15:43;;;;;;;4.85;3.35;;;32.70;81.80;;;;;;5002934;28;20221;-89
2022/05/20 12:24:11;;;;;;;4.68;3.08;;;32.80;82.90;;;;;;5002437;28;20190;-89
2022/05/20 12:24:41;;;;;;;5.55;3.22;;;33.10;82.20;;;;;;5018431;28;20183;-89
2022/05/20 12:27:22;;;;;;;7.00;3.20;;;33.20;80.50;;;;;;4957683;28;20215;-89
2022/05/20 12:29:59;;;;;;;6.35;3.25;;;33.30;79.90;;;;;;5001039;28;20195;-89
2022/05/20 12:32:29;;;;;;;6.65;3.30;;;33.30;80.60;;;;;;5018267;28;20185;-89
2022/05/20 12:35:13;;;;;;;6.32;3.55;;;33.20;79.70;;;;;;5001865;28;20213;-89
2022/05/20 12:37:42;;;;;;;6.72;3.28;;;33.30;80.60;;;;;;5001809;28;20191;-89
2022/05/20 12:40:27;;;;;;;5.70;2.97;;;33.30;78.50;;;;;;5001786;28;20179;-89
2022/05/20 12:42:58;;;;;;;8.70;3.10;;;33.20;78.00;;;;;;5002118;28;20179;-89
2022/05/20 12:45:27;;;;;;;7.28;3.28;;;33.50;79.00;;;;;;5001804;28;20212;-89
2022/05/20 12:47:54;;;;;;;8.90;3.50;;;33.60;79.00;;;;;;5001785;28;20179;-89
2022/05/20 12:50:25;;;;;;;7.65;3.13;;;33.70;79.20;;;;;;5001497;28;20182;-89
2022/05/20 12:52:54;;;;;;;7.07;3.25;;;33.70;78.10;;;;;;5036059;28;20228;-88
2022/05/20 12:55:25;;;;;;;5.18;3.30;;;33.70;77.10;;;;;;5037396;28;20280;-89
2022/05/20 12:58:00;;;;;;;9.07;3.47;;;33.60;80.40;;;;;;5037756;28;20297;-89
2022/05/20 13:00:41;;;;;;;7.30;3.20;;;33.80;78.10;;;;;;5037817;28;20177;-88
2022/05/20 13:03:35;;;;;;;7.32;3.30;;;33.90;79.50;;;;;;5037800;28;20174;-88
2022/05/20 13:06:03;;;;;;;6.15;3.33;;;34.00;78.30;;;;;;5037768;28;20251;-89
2022/05/20 13:08:41;;;;;;;12.27;3.78;;;34.00;78.20;;;;;;5037658;28;20178;-89
2022/05/20 13:11:09;;;;;;;8.23;3.40;;;34.00;77.40;;;;;;5038095;28;20178;-89
2022/05/20 13:13:37;;;;;;;7.45;3.10;;;34.10;78.60;;;;;;5036384;28;20240;-89
2022/05/20 13:16:06;;;;;;;8.38;3.25;;;34.30;78.30;;;;;;5037610;28;20205;-89
2022/05/20 13:18:41;;;;;;;7.70;3.10;;;34.50;74.90;;;;;;5037256;28;20196;-89
2022/05/20 13:21:16;;;;;;;8.60;3.50;;;34.60;74.70;;;;;;5037229;28;20272;-89
2022/05/20 13:23:47;;;;;;;9.32;3.33;;;34.30;75.40;;;;;;5041671;28;20174;-89
2022/05/20 13:26:23;;;;;;;8.32;3.38;;;34.30;76.90;;;;;;5017927;28;20205;-89
2022/05/20 13:28:50;;;;;;;5.53;3.13;;;34.20;75.90;;;;;;5000976;28;20182;-90
2022/05/20 13:31:22;;;;;;;4.75;3.03;;;34.30;77.30;;;;;;5034128;28;20170;-89
2022/05/20 13:33:48;;;;;;;4.15;3.20;;;34.50;78.30;;;;;;5036870;28;20212;-89
2022/05/20 13:36:19;;;;;;;6.40;3.50;;;34.60;77.90;;;;;;5037217;28;20198;-89
2022/05/20 13:38:50;;;;;;;6.22;3.80;;;34.80;78.70;;;;;;5029935;28;20174;-89
2022/05/20 13:41:22;;;;;;;8.88;3.35;;;34.90;79.70;;;;;;5001140;28;20212;-88
2022/05/20 13:43:52;;;;;;;5.85;3.20;;;35.10;77.90;;;;;;5024488;28;20185;-88
2022/05/20 13:49:18;;;;;;;7.45;3.67;;;34.90;77.40;;;;;;5036544;28;20167;-88
2022/05/20 13:51:59;;;;;;;5.65;3.15;;;34.80;75.80;;;;;;5029361;28;20615;-89
2022/05/20 13:54:35;;;;;;;6.57;3.10;;;34.60;76.30;;;;;;5020319;28;20209;-89